CDT,Max TemperatureF,Mean TemperatureF,Min TemperatureF,Max Dew PointF,MeanDew PointF,Min DewpointF,Max Humidity, Mean Humidity, Min Humidity, Max Sea Level PressureIn, Mean Sea Level PressureIn, Min Sea Level PressureIn, Max VisibilityMiles, Mean VisibilityMiles, Min VisibilityMiles, Max Wind SpeedMPH, Mean Wind SpeedMPH, Max Gust SpeedMPH,PrecipitationIn, CloudCover, Events, WindDirDegrees
2013-4-1,48,44,39,39,33,26,82,69,53,30.27,30.20,29.98,10,10,7,18,12,25,0.09,6,Rain,43
2013-4-2,39,37,35,32,31,29,89,76,70,30.30,30.26,30.23,10,9,5,16,11,18,0.36,8,Rain,63
2013-4-3,39,36,33,37,33,29,97,85,65,30.34,30.29,30.24,10,7,1,16,10,22,0.24,8,Rain-Snow,52
2013-4-4,57,46,34,42,38,33,100,76,49,30.27,30.20,30.13,10,8,3,12,5,,0.00,2,,304
2013-4-5,66,50,35,47,41,33,97,69,43,30.20,30.08,29.86,10,10,7,21,6,26,0.00,0,,179
2013-4-6,75,64,55,53,48,44,72,61,43,29.86,29.79,29.75,10,10,10,26,17,33,0.00,0,,205
2013-4-7,73,60,48,59,54,44,96,82,65,29.86,29.77,29.67,10,9,6,23,7,30,0.00,4,,147
2013-4-8,73,66,59,63,60,57,96,79,66,29.69,29.63,29.57,10,10,7,21,12,30,0.00,6,,139
2013-4-9,79,56,35,64,53,33,93,80,62,29.95,29.70,29.57,10,9,5,28,17,40,0.08,7,Rain-Thunderstorm,173
2013-4-10,36,34,32,36,32,29,100,91,85,30.03,29.95,29.86,10,8,2,26,17,34,1.07,8,Rain-Snow-Thunderstorm,325
2013-4-11,52,40,30,36,30,26,89,73,52,29.99,29.88,29.78,10,10,10,15,10,21,0.00,3,,294
2013-4-12,57,42,28,37,32,26,89,65,47,30.05,29.99,29.88,10,10,10,15,7,,0.00,1,,338
2013-4-13,73,55,37,50,41,34,89,62,39,30.07,29.88,29.64,10,10,10,22,7,30,0.00,0,,150
2013-4-14,75,66,59,57,47,30,67,54,32,29.72,29.56,29.48,10,10,10,26,19,40,0.00,3,,198
2013-4-15,59,52,46,36,30,25,52,40,28,29.93,29.81,29.73,10,10,10,18,14,25,0.00,6,,48
2013-4-16,48,46,44,45,39,31,100,77,52,30.05,29.99,29.90,10,8,4,20,15,28,0.00,8,,55
2013-4-17,54,48,44,54,48,42,100,97,93,29.97,29.78,29.65,10,5,0,22,10,26,0.06,8,Fog-Rain-Thunderstorm,3
2013-4-18,44,38,33,43,34,26,100,80,60,30.12,29.87,29.65,10,9,5,26,19,38,0.13,7,Rain-Thunderstorm,328
2013-4-19,66,46,28,35,29,24,85,58,31,30.17,30.10,30.03,10,10,10,17,10,28,0.00,0,,295
2013-4-20,66,52,39,40,34,31,70,50,36,30.14,30.08,29.99,10,10,10,14,7,18,0.00,0,,117
2013-4-21,69,61,53,45,42,38,69,54,39,30.18,30.12,30.06,10,10,10,18,11,32,0.00,2,,163
2013-4-22,73,58,44,57,48,42,100,71,47,30.09,29.96,29.80,10,10,4,28,12,38,0.24,4,Rain-Thunderstorm,142
2013-4-23,43,40,34,43,34,29,100,90,76,30.31,30.10,29.95,10,6,2,30,22,40,0.45,8,Rain-Snow-Thunderstorm,1
2013-4-24,57,42,28,39,32,26,96,71,40,30.35,30.29,30.25,10,9,2,14,7,,0.00,2,Snow,291
2013-4-25,69,52,35,40,36,31,89,54,31,30.35,30.26,30.11,10,10,10,18,6,23,0.00,1,,189
2013-4-26,59,55,51,52,48,36,100,85,42,30.16,30.11,30.06,10,7,2,18,12,29,0.77,8,Rain-Thunderstorm,113
2013-4-27,63,56,50,53,50,48,100,90,72,30.15,30.10,30.03,10,7,2,15,8,,0.09,7,Rain,358
2013-4-28,80,61,43,60,49,43,100,83,44,30.03,29.95,29.78,10,6,0,16,4,23,0.00,0,Fog,181
2013-4-29,84,72,59,62,57,52,96,61,40,29.79,29.72,29.63,10,10,8,24,12,33,0.00,0,,186
2013-4-30,82,73,64,61,56,53,78,58,42,29.78,29.71,29.67,10,10,10,24,17,33,0.00,0,,168